createdAt,value
2022-12-24T00:00:38.199Z,81.92
2022-12-24T00:03:05.132Z,80.27
2022-12-24T00:05:31.933Z,80.84
2022-12-24T00:07:58.563Z,81.00
2022-12-24T00:10:25.251Z,81.08
2022-12-24T00:12:53.163Z,81.38
2022-12-24T00:15:19.784Z,80.54
2022-12-24T00:17:46.435Z,78.64
2022-12-24T00:20:13.032Z,77.52
2022-12-24T00:22:39.659Z,77.45
2022-12-24T00:25:06.734Z,74.53
2022-12-24T00:27:33.355Z,75.50
2022-12-24T00:29:59.974Z,75.72
2022-12-24T00:32:26.587Z,75.84
2022-12-24T00:34:53.265Z,76.11
2022-12-24T00:37:20.490Z,74.56
2022-12-24T00:39:47.139Z,73.70
2022-12-24T00:42:13.730Z,74.29
2022-12-24T00:44:40.416Z,72.78
2022-12-24T00:47:11.981Z,71.96
2022-12-24T00:49:38.942Z,72.33
2022-12-24T00:52:05.668Z,71.63
2022-12-24T00:54:32.246Z,71.77
2022-12-24T00:56:58.893Z,72.48
2022-12-24T00:59:25.535Z,71.49
2022-12-24T01:01:52.235Z,72.51
2022-12-24T01:04:19.951Z,71.99
2022-12-24T01:06:46.604Z,73.18
2022-12-24T01:09:13.485Z,72.93
2022-12-24T01:11:40.246Z,70.91
2022-12-24T01:14:06.865Z,70.17
2022-12-24T01:16:33.527Z,69.06
2022-12-24T01:19:02.428Z,69.19
2022-12-24T01:21:29.073Z,70.57
2022-12-24T01:23:55.662Z,69.85
2022-12-24T01:26:22.305Z,73.81
2022-12-24T01:28:49.102Z,74.10
2022-12-24T01:31:18.500Z,72.09
2022-12-24T01:33:48.482Z,71.56
2022-12-24T01:36:15.529Z,70.42
2022-12-24T01:38:42.122Z,72.16
2022-12-24T01:41:15.456Z,71.71
2022-12-24T01:43:42.066Z,72.00
2022-12-24T01:46:25.503Z,71.45
2022-12-24T01:48:58.240Z,73.02
2022-12-24T01:51:29.720Z,72.82
2022-12-24T01:54:15.228Z,72.25
2022-12-24T01:56:50.979Z,71.93
2022-12-24T01:59:21.070Z,71.18
2022-12-24T02:01:51.104Z,71.52
2022-12-24T02:04:30.480Z,71.56
2022-12-24T02:06:57.361Z,71.44
2022-12-24T02:09:24.191Z,72.91
2022-12-24T02:11:51.093Z,72.50
2022-12-24T02:14:18.402Z,71.30
2022-12-24T02:17:11.205Z,73.26
2022-12-24T02:19:43.485Z,71.41
2022-12-24T02:22:31.073Z,72.27
2022-12-24T02:25:19.266Z,71.43
2022-12-24T02:28:16.555Z,69.81
2022-12-24T02:31:00.148Z,70.05
2022-12-24T02:33:37.797Z,69.78
2022-12-24T02:36:25.325Z,69.32
2022-12-24T02:39:01.983Z,69.89
2022-12-24T02:41:37.688Z,70.78
2022-12-24T02:44:04.763Z,72.51
2022-12-24T02:46:33.142Z,72.26
2022-12-24T02:49:01.167Z,74.20
2022-12-24T02:51:27.789Z,74.31
2022-12-24T02:53:54.470Z,73.31
2022-12-24T02:56:39.875Z,72.58
2022-12-24T02:59:14.852Z,72.24
2022-12-24T03:01:58.177Z,73.13
2022-12-24T03:04:46.562Z,74.52
2022-12-24T03:07:32.948Z,73.81
2022-12-24T03:10:34.660Z,74.83
2022-12-24T03:13:17.016Z,74.85
2022-12-24T03:15:47.148Z,75.22
2022-12-24T03:18:18.742Z,74.79
2022-12-24T03:20:54.318Z,75.82
2022-12-24T03:23:21.232Z,73.96
2022-12-24T03:25:47.830Z,72.44
2022-12-24T03:28:17.725Z,71.13
2022-12-24T03:30:46.956Z,70.90
2022-12-24T03:33:14.706Z,70.22
2022-12-24T03:35:41.347Z,70.31
2022-12-24T03:38:08.047Z,71.91
2022-12-24T03:40:34.661Z,70.66
2022-12-24T03:43:01.387Z,70.03
2022-12-24T03:45:28.188Z,69.20
2022-12-24T03:47:54.848Z,71.02
2022-12-24T03:50:21.535Z,71.78
2022-12-24T03:52:48.130Z,72.29
2022-12-24T03:55:14.740Z,71.08
2022-12-24T03:57:41.441Z,70.27
2022-12-24T04:00:08.715Z,70.01
2022-12-24T04:02:35.463Z,70.12
2022-12-24T04:05:02.130Z,70.37
2022-12-24T04:07:28.727Z,70.60
2022-12-24T04:09:55.305Z,71.84
2022-12-24T04:12:25.880Z,72.76
2022-12-24T04:15:10.456Z,71.55
2022-12-24T04:17:48.539Z,70.29
2022-12-24T04:20:31.366Z,70.59
2022-12-24T04:22:57.967Z,71.56
2022-12-24T04:25:24.586Z,71.28
2022-12-24T04:27:51.266Z,70.56
2022-12-24T04:30:18.115Z,70.39
2022-12-24T04:32:44.789Z,70.27
2022-12-24T04:35:11.446Z,71.00
2022-12-24T04:37:38.083Z,71.26
2022-12-24T04:40:05.137Z,71.01
2022-12-24T04:42:31.777Z,71.13
2022-12-24T04:44:58.407Z,73.45
2022-12-24T04:47:25.002Z,72.39
2022-12-24T04:49:51.653Z,71.36
2022-12-24T04:52:18.289Z,71.11
2022-12-24T04:54:44.902Z,71.17
2022-12-24T04:57:11.517Z,70.32
2022-12-24T04:59:38.148Z,70.59
2022-12-24T05:02:04.875Z,71.83
2022-12-24T05:04:31.671Z,72.02
2022-12-24T05:06:58.262Z,72.91
2022-12-24T05:09:25.320Z,73.04
2022-12-24T05:11:51.970Z,72.88
2022-12-24T05:14:18.588Z,75.05
2022-12-24T05:16:45.381Z,75.32
2022-12-24T05:19:12.160Z,75.88
2022-12-24T05:21:39.127Z,75.75
2022-12-24T05:24:05.940Z,73.88
2022-12-24T05:26:40.662Z,75.20
2022-12-24T05:29:09.062Z,75.38
2022-12-24T05:31:36.238Z,76.58
2022-12-24T05:34:03.072Z,77.92
2022-12-24T05:36:30.640Z,76.44
2022-12-24T05:38:57.792Z,74.63
2022-12-24T05:41:25.233Z,75.18
2022-12-24T05:43:52.481Z,76.02
2022-12-24T05:46:21.907Z,75.87
2022-12-24T05:48:50.179Z,75.83
2022-12-24T05:51:19.276Z,76.55
2022-12-24T05:53:46.969Z,78.77
2022-12-24T05:56:16.938Z,78.80
2022-12-24T05:58:44.294Z,76.88
2022-12-24T06:01:12.308Z,78.47
2022-12-24T06:03:39.036Z,79.06
2022-12-24T06:06:07.199Z,78.77
2022-12-24T06:08:34.889Z,79.48
2022-12-24T06:11:04.769Z,79.39
2022-12-24T06:13:31.558Z,79.07
2022-12-24T06:16:00.806Z,80.24
2022-12-24T06:18:30.181Z,79.75
2022-12-24T06:20:57.839Z,79.38
2022-12-24T06:23:25.167Z,79.39
2022-12-24T06:25:52.475Z,81.32
2022-12-24T06:28:19.064Z,80.74
2022-12-24T06:30:50.906Z,80.61
2022-12-24T06:33:18.939Z,80.33
2022-12-24T06:35:46.871Z,78.20
2022-12-24T06:38:14.869Z,78.97
2022-12-24T06:40:43.461Z,78.47
2022-12-24T06:43:11.094Z,79.61
2022-12-24T06:45:37.871Z,79.38
2022-12-24T06:48:04.856Z,79.33
2022-12-24T06:50:32.408Z,79.27
2022-12-24T06:52:59.116Z,78.80
2022-12-24T06:55:25.734Z,77.65
2022-12-24T06:57:52.344Z,78.16
2022-12-24T07:00:20.780Z,77.88
2022-12-24T07:02:48.190Z,74.95
2022-12-24T07:05:15.050Z,75.39
2022-12-24T07:07:43.972Z,75.89
2022-12-24T07:10:12.906Z,77.02
2022-12-24T07:12:39.711Z,76.56
2022-12-24T07:15:06.960Z,77.63
2022-12-24T07:17:33.707Z,77.62
2022-12-24T07:20:00.375Z,77.21
2022-12-24T07:22:26.947Z,76.99
2022-12-24T07:24:53.578Z,76.36
2022-12-24T07:27:20.512Z,76.25
2022-12-24T07:29:47.375Z,75.62
2022-12-24T07:32:14.142Z,77.21
2022-12-24T07:34:40.734Z,76.64
2022-12-24T07:37:07.882Z,77.60
2022-12-24T07:39:34.553Z,77.88
2022-12-24T07:42:01.178Z,77.92
2022-12-24T07:44:27.868Z,74.88
2022-12-24T07:46:54.581Z,73.84
2022-12-24T07:49:21.211Z,73.55
2022-12-24T07:51:47.826Z,73.39
2022-12-24T07:54:14.592Z,73.14
2022-12-24T07:56:42.921Z,73.77
2022-12-24T07:59:13.303Z,73.95
2022-12-24T08:01:40.487Z,72.66
2022-12-24T08:04:07.233Z,73.05
2022-12-24T08:06:34.013Z,73.59
2022-12-24T08:09:00.704Z,73.05
2022-12-24T08:11:27.345Z,74.39
2022-12-24T08:13:54.082Z,74.65
2022-12-24T08:16:20.800Z,75.18
2022-12-24T08:18:47.446Z,75.06
2022-12-24T08:21:14.177Z,74.12
2022-12-24T08:23:40.771Z,75.16
2022-12-24T08:26:08.789Z,74.00
2022-12-24T08:28:39.200Z,72.51
2022-12-24T08:31:06.477Z,71.36
2022-12-24T08:33:33.095Z,70.89
2022-12-24T08:36:01.606Z,70.76
2022-12-24T08:38:28.491Z,72.77
2022-12-24T08:40:55.777Z,72.68
2022-12-24T08:43:24.321Z,71.35
2022-12-24T08:45:50.949Z,71.77
2022-12-24T08:48:17.649Z,71.88
2022-12-24T08:50:44.443Z,72.56
2022-12-24T08:53:11.525Z,72.89
2022-12-24T08:55:38.714Z,72.74
2022-12-24T08:58:05.685Z,73.04
2022-12-24T09:00:32.394Z,71.47
2022-12-24T09:02:59.228Z,71.10
2022-12-24T09:05:26.133Z,71.65
2022-12-24T09:07:53.240Z,71.49
2022-12-24T09:10:19.991Z,70.95
2022-12-24T09:12:46.858Z,76.62
2022-12-24T09:15:13.613Z,77.03
2022-12-24T09:17:40.395Z,77.28
2022-12-24T09:20:08.053Z,80.14
2022-12-24T09:22:37.360Z,80.34
2022-12-24T09:25:04.524Z,81.90
2022-12-24T09:27:31.524Z,80.17
2022-12-24T09:29:58.125Z,79.95
2022-12-24T09:32:24.877Z,79.72
2022-12-24T09:34:51.574Z,81.42
2022-12-24T09:37:18.517Z,80.56
2022-12-24T09:39:45.182Z,78.38
2022-12-24T09:42:28.480Z,77.03
2022-12-24T09:45:19.802Z,78.62
2022-12-24T09:47:55.840Z,80.11
2022-12-24T09:50:40.527Z,80.10
2022-12-24T09:53:21.481Z,81.51
2022-12-24T09:55:53.360Z,78.39
2022-12-24T09:58:27.863Z,77.36
2022-12-24T10:00:57.121Z,76.79
2022-12-24T10:03:24.015Z,76.14
2022-12-24T10:05:57.036Z,77.90
2022-12-24T10:09:07.021Z,75.61
2022-12-24T10:12:07.652Z,74.57
2022-12-24T10:14:46.035Z,70.62
2022-12-24T10:17:27.615Z,69.35
2022-12-24T10:20:21.662Z,69.44
2022-12-24T10:23:17.545Z,67.98
2022-12-24T10:26:12.105Z,67.43
2022-12-24T10:29:06.811Z,67.25
2022-12-24T10:31:44.099Z,67.45
2022-12-24T10:34:23.539Z,67.29
2022-12-24T10:36:50.653Z,67.78
2022-12-24T10:39:22.645Z,66.83
2022-12-24T10:41:53.385Z,65.56
2022-12-24T10:44:27.653Z,64.85
2022-12-24T10:46:55.409Z,64.87
2022-12-24T10:49:36.719Z,64.28
2022-12-24T10:52:10.631Z,64.31
2022-12-24T10:54:37.640Z,64.40
2022-12-24T10:57:06.511Z,66.23
2022-12-24T10:59:39.283Z,66.09
2022-12-24T11:02:29.315Z,67.08
2022-12-24T11:04:56.108Z,65.62
2022-12-24T11:07:23.907Z,64.61
2022-12-24T11:10:02.557Z,66.06
2022-12-24T11:13:05.696Z,67.29
2022-12-24T11:15:35.300Z,67.29
2022-12-24T11:18:14.777Z,66.27
2022-12-24T11:20:49.117Z,66.98
2022-12-24T11:23:19.538Z,65.87
2022-12-24T11:25:54.802Z,66.51
2022-12-24T11:28:32.200Z,66.23
2022-12-24T11:31:05.962Z,65.77
2022-12-24T11:33:47.140Z,65.90
2022-12-24T11:36:14.224Z,67.16
2022-12-24T11:38:40.863Z,70.27
2022-12-24T11:41:12.334Z,68.38
2022-12-24T11:43:49.847Z,67.58
2022-12-24T11:46:35.493Z,66.96
2022-12-24T11:49:13.192Z,65.54
2022-12-24T11:52:00.559Z,65.60
2022-12-24T11:54:33.872Z,65.09
2022-12-24T11:57:02.110Z,65.40
2022-12-24T11:59:45.697Z,64.94
2022-12-24T12:02:26.299Z,64.74
2022-12-24T12:04:59.492Z,65.11
2022-12-24T12:07:34.086Z,64.46
2022-12-24T12:10:19.148Z,63.59
2022-12-24T12:12:57.271Z,62.92
2022-12-24T12:15:35.107Z,63.79
2022-12-24T12:18:17.554Z,65.17
2022-12-24T12:20:58.388Z,68.38
2022-12-24T12:23:40.177Z,68.64
2022-12-24T12:26:06.752Z,66.98
2022-12-24T12:29:09.019Z,69.29
2022-12-24T12:31:44.790Z,68.65
2022-12-24T12:34:27.644Z,68.85
2022-12-24T12:37:19.706Z,68.30
2022-12-24T12:39:47.166Z,66.82
2022-12-24T12:42:32.137Z,67.24
2022-12-24T12:45:30.965Z,65.04
2022-12-24T12:48:29.858Z,61.46
2022-12-24T12:51:07.203Z,61.79
2022-12-24T12:54:02.108Z,61.39
2022-12-24T12:56:35.799Z,64.68
2022-12-24T12:59:19.143Z,67.12
2022-12-24T13:02:12.749Z,68.63
2022-12-24T13:04:42.027Z,70.11
2022-12-24T13:07:11.544Z,69.42
2022-12-24T13:10:08.190Z,70.83
2022-12-24T13:12:47.793Z,70.81
2022-12-24T13:15:14.356Z,72.21
2022-12-24T13:17:53.135Z,70.75
2022-12-24T13:20:48.139Z,70.93
2022-12-24T13:23:19.935Z,71.06
2022-12-24T13:25:50.010Z,68.76
2022-12-24T13:28:18.506Z,69.17
2022-12-24T13:30:45.211Z,70.32
2022-12-24T13:33:34.090Z,69.37
2022-12-24T13:36:02.279Z,71.56
2022-12-24T13:38:28.885Z,68.79
2022-12-24T13:40:56.088Z,70.81
2022-12-24T13:43:22.761Z,70.33
2022-12-24T13:45:51.373Z,66.15
2022-12-24T13:48:33.007Z,67.77
2022-12-24T13:51:24.888Z,65.92
2022-12-24T13:53:59.455Z,66.59
2022-12-24T13:56:31.012Z,66.39
2022-12-24T13:59:38.919Z,67.04
2022-12-24T14:02:20.361Z,68.10
2022-12-24T14:04:51.913Z,69.14
2022-12-24T14:07:20.651Z,67.85
2022-12-24T14:09:52.364Z,66.70
2022-12-24T14:12:48.045Z,65.46
2022-12-24T14:15:45.565Z,65.02
2022-12-24T14:18:19.249Z,66.76
2022-12-24T14:20:52.053Z,64.99
2022-12-24T14:23:55.827Z,64.61
2022-12-24T14:26:29.898Z,63.51
2022-12-24T14:29:03.230Z,65.31
2022-12-24T14:31:30.030Z,64.40
2022-12-24T14:34:13.003Z,63.60
2022-12-24T14:36:44.135Z,65.92
2022-12-24T14:39:23.637Z,65.73
2022-12-24T14:42:07.991Z,65.80
2022-12-24T14:44:53.271Z,64.95
2022-12-24T14:47:55.156Z,64.96
2022-12-24T14:50:57.610Z,64.99
2022-12-24T14:53:55.646Z,64.28
2022-12-24T14:56:22.875Z,64.57
2022-12-24T14:58:50.148Z,64.62
2022-12-24T15:01:24.249Z,64.27
2022-12-24T15:04:03.568Z,64.14
2022-12-24T15:06:35.648Z,64.68
2022-12-24T15:09:02.902Z,64.75
2022-12-24T15:11:30.988Z,65.43
2022-12-24T15:14:00.276Z,64.96
2022-12-24T15:16:36.766Z,64.65
2022-12-24T15:19:11.319Z,65.05
2022-12-24T15:21:42.705Z,64.55
2022-12-24T15:24:46.466Z,64.93
2022-12-24T15:27:26.084Z,63.90
2022-12-24T15:29:57.183Z,64.51
2022-12-24T15:32:24.133Z,64.73
2022-12-24T15:34:54.090Z,64.81
2022-12-24T15:37:21.259Z,67.89
2022-12-24T15:39:57.871Z,69.52
2022-12-24T15:42:27.545Z,68.78
2022-12-24T15:45:05.985Z,68.69
2022-12-24T15:47:38.417Z,67.87
2022-12-24T15:50:30.325Z,67.41
2022-12-24T15:53:19.309Z,67.07
2022-12-24T15:55:59.774Z,66.67
2022-12-24T15:58:29.042Z,66.16
2022-12-24T16:01:06.865Z,66.29
2022-12-24T16:03:36.598Z,66.05
2022-12-24T16:06:11.165Z,65.98
2022-12-24T16:08:39.476Z,65.93
2022-12-24T16:11:09.012Z,66.43
2022-12-24T16:13:51.625Z,67.56
2022-12-24T16:16:22.456Z,70.27
2022-12-24T16:18:58.511Z,68.51
2022-12-24T16:21:32.909Z,67.42
2022-12-24T16:24:14.685Z,67.07
2022-12-24T16:26:44.794Z,69.65
2022-12-24T16:29:12.382Z,69.98
2022-12-24T16:31:44.005Z,68.50
2022-12-24T16:34:14.937Z,67.65
2022-12-24T16:36:42.745Z,67.17
2022-12-24T16:39:30.987Z,67.15
2022-12-24T16:42:03.782Z,69.19
2022-12-24T16:44:30.494Z,69.86
2022-12-24T16:47:00.435Z,70.89
2022-12-24T16:49:27.610Z,73.55
2022-12-24T16:51:54.985Z,73.15
2022-12-24T16:54:21.850Z,70.82
2022-12-24T16:56:48.558Z,69.68
2022-12-24T16:59:21.434Z,69.28
2022-12-24T17:01:49.316Z,69.01
2022-12-24T17:04:18.194Z,67.98
2022-12-24T17:06:45.347Z,68.38
2022-12-24T17:09:12.803Z,67.66
2022-12-24T17:11:39.481Z,66.97
2022-12-24T17:14:08.571Z,67.42
2022-12-24T17:16:36.531Z,66.68
2022-12-24T17:19:03.719Z,66.91
2022-12-24T17:21:30.650Z,69.60
2022-12-24T17:23:57.312Z,68.64
2022-12-24T17:26:23.902Z,67.88
2022-12-24T17:28:54.338Z,67.06
2022-12-24T17:31:21.977Z,66.81
2022-12-24T17:33:50.287Z,66.83
2022-12-24T17:36:17.758Z,66.90
2022-12-24T17:38:48.712Z,66.86
2022-12-24T17:41:18.797Z,66.51
2022-12-24T17:43:47.057Z,67.19
2022-12-24T17:46:21.843Z,67.02
2022-12-24T17:48:50.331Z,67.14
2022-12-24T17:51:20.640Z,66.82
2022-12-24T17:53:47.880Z,66.98
2022-12-24T17:56:15.799Z,66.76
2022-12-24T17:58:44.363Z,68.26
2022-12-24T18:01:14.193Z,67.53
2022-12-24T18:03:41.212Z,67.40
2022-12-24T18:06:10.194Z,68.11
2022-12-24T18:08:38.651Z,67.34
2022-12-24T18:11:25.088Z,67.41
2022-12-24T18:13:51.763Z,67.30
2022-12-24T18:16:20.738Z,67.49
2022-12-24T18:18:48.722Z,69.20
2022-12-24T18:21:17.841Z,68.08
2022-12-24T18:23:46.725Z,67.66
2022-12-24T18:26:15.639Z,67.02
2022-12-24T18:28:43.452Z,66.90
2022-12-24T18:31:16.981Z,66.27
2022-12-24T18:33:45.466Z,70.32
2022-12-24T18:36:13.555Z,69.30
2022-12-24T18:38:42.629Z,68.82
2022-12-24T18:41:12.357Z,67.77
2022-12-24T18:43:39.210Z,67.48
2022-12-24T18:46:07.714Z,67.91
2022-12-24T18:48:34.595Z,67.39
2022-12-24T18:51:02.288Z,67.83
2022-12-24T18:53:28.878Z,67.48
2022-12-24T18:55:55.816Z,67.75
2022-12-24T18:58:22.452Z,68.78
2022-12-24T19:00:49.195Z,68.74
2022-12-24T19:03:16.715Z,68.27
2022-12-24T19:05:43.704Z,67.64
2022-12-24T19:08:37.665Z,68.04
2022-12-24T19:10:57.030Z,71.39
2022-12-24T19:13:23.760Z,70.45
2022-12-24T19:15:50.534Z,72.67
2022-12-24T19:18:17.286Z,70.79
2022-12-24T19:20:43.981Z,69.69
2022-12-24T19:23:10.842Z,68.80
2022-12-24T19:25:37.472Z,68.06
2022-12-24T19:28:04.611Z,67.64
2022-12-24T19:30:31.242Z,67.61
2022-12-24T19:32:58.125Z,67.74
2022-12-24T19:35:24.824Z,68.01
2022-12-24T19:37:51.493Z,68.33
2022-12-24T19:40:18.468Z,69.90
2022-12-24T19:42:45.081Z,73.07
2022-12-24T19:45:11.924Z,71.57
2022-12-24T19:47:38.578Z,70.80
2022-12-24T19:50:05.899Z,72.04
2022-12-24T19:52:32.521Z,73.90
2022-12-24T19:54:59.233Z,71.60
2022-12-24T19:57:26.036Z,70.17
2022-12-24T19:59:52.723Z,69.55
2022-12-24T20:02:19.535Z,69.27
2022-12-24T20:04:46.685Z,68.27
2022-12-24T20:07:13.418Z,67.77
2022-12-24T20:09:40.059Z,67.49
2022-12-24T20:12:15.346Z,67.29
2022-12-24T20:14:42.231Z,67.08
2022-12-24T20:17:09.117Z,66.92
2022-12-24T20:19:35.877Z,66.75
2022-12-24T20:22:02.522Z,66.52
2022-12-24T20:24:29.170Z,66.94
2022-12-24T20:26:55.864Z,67.71
2022-12-24T20:29:22.526Z,68.53
2022-12-24T20:31:49.300Z,67.55
2022-12-24T20:34:16.033Z,67.40
2022-12-24T20:36:43.048Z,67.56
2022-12-24T20:39:12.088Z,67.74
2022-12-24T20:41:38.972Z,67.69
2022-12-24T20:44:05.791Z,67.84
2022-12-24T20:46:33.015Z,68.18
2022-12-24T20:48:59.698Z,68.18
2022-12-24T20:51:28.335Z,67.69
2022-12-24T20:53:58.637Z,68.38
2022-12-24T20:56:26.070Z,69.36
2022-12-24T20:58:53.022Z,69.30
2022-12-24T21:01:26.544Z,69.94
2022-12-24T21:03:55.216Z,69.08
2022-12-24T21:06:23.472Z,68.62
2022-12-24T21:08:51.010Z,68.65
2022-12-24T21:11:18.673Z,68.90
2022-12-24T21:13:45.523Z,68.99
2022-12-24T21:16:12.196Z,68.66
2022-12-24T21:18:38.866Z,68.21
2022-12-24T21:21:05.653Z,70.16
2022-12-24T21:23:32.265Z,69.65
2022-12-24T21:26:04.986Z,68.65
2022-12-24T21:28:31.812Z,68.63
2022-12-24T21:30:58.465Z,70.56
2022-12-24T21:33:25.167Z,68.78
2022-12-24T21:35:58.220Z,68.08
2022-12-24T21:38:25.475Z,68.32
2022-12-24T21:41:00.481Z,67.31
2022-12-24T21:43:29.763Z,67.05
2022-12-24T21:45:56.821Z,66.36
2022-12-24T21:48:24.262Z,66.07
2022-12-24T21:50:51.508Z,66.62
2022-12-24T21:53:18.295Z,66.37
2022-12-24T21:55:45.112Z,66.08
2022-12-24T21:58:11.708Z,65.73
2022-12-24T22:00:41.052Z,65.41
2022-12-24T22:03:08.225Z,66.07
2022-12-24T22:05:35.259Z,67.31
2022-12-24T22:08:02.044Z,66.36
2022-12-24T22:10:28.760Z,66.32
2022-12-24T22:12:56.232Z,66.03
2022-12-24T22:15:22.867Z,67.18
2022-12-24T22:17:49.497Z,66.59
2022-12-24T22:20:16.198Z,66.56
2022-12-24T22:22:42.827Z,67.33
2022-12-24T22:25:09.680Z,67.48
2022-12-24T22:27:36.346Z,67.57
2022-12-24T22:30:03.101Z,67.80
2022-12-24T22:32:29.740Z,68.05
2022-12-24T22:34:56.341Z,68.03
2022-12-24T22:37:22.939Z,68.44
2022-12-24T22:39:49.558Z,68.44
2022-12-24T22:42:17.085Z,68.78
2022-12-24T22:44:43.864Z,68.92
2022-12-24T22:47:10.485Z,68.66
2022-12-24T22:49:37.094Z,67.88
2022-12-24T22:52:03.857Z,67.15
2022-12-24T22:54:30.580Z,67.02
2022-12-24T22:56:57.204Z,66.53
2022-12-24T22:59:23.825Z,66.38
2022-12-24T23:01:50.542Z,66.00
2022-12-24T23:04:17.194Z,66.13
2022-12-24T23:06:43.851Z,66.50
2022-12-24T23:09:14.150Z,66.89
2022-12-24T23:11:40.792Z,67.61
2022-12-24T23:14:07.511Z,66.72
2022-12-24T23:16:35.094Z,66.44
2022-12-24T23:19:03.988Z,66.15
2022-12-24T23:21:31.375Z,66.39
2022-12-24T23:23:59.486Z,66.11
2022-12-24T23:26:26.882Z,68.00
2022-12-24T23:28:53.839Z,69.04
2022-12-24T23:31:22.112Z,69.83
2022-12-24T23:33:49.191Z,69.50
2022-12-24T23:36:16.769Z,69.12
2022-12-24T23:38:43.864Z,68.34
2022-12-24T23:41:11.619Z,69.54
2022-12-24T23:43:38.613Z,70.26
2022-12-24T23:46:05.950Z,71.28
2022-12-24T23:48:32.640Z,69.99
2022-12-24T23:51:28.612Z,68.55
2022-12-24T23:53:56.833Z,68.11
2022-12-24T23:56:25.243Z,68.19
2022-12-24T23:58:51.885Z,68.33
